sensor_id;sensor_type;location;lat;lon;timestamp;P1;durP1;ratioP1;P2;durP2;ratioP2
6388;SDS011;3227;42.654;23.360;2024-01-15T00:00:16;39.77;;;17.53;;
6388;SDS011;3227;42.654;23.360;2024-01-15T00:02:44;32.70;;;13.70;;
6388;SDS011;3227;42.654;23.360;2024-01-15T00:05:11;31.60;;;14.50;;
6388;SDS011;3227;42.654;23.360;2024-01-15T00:07:38;28.17;;;14.63;;
6388;SDS011;3227;42.654;23.360;2024-01-15T00:10:05;29.73;;;15.17;;
6388;SDS011;3227;42.654;23.360;2024-01-15T00:12:32;29.73;;;14.57;;
6388;SDS011;3227;42.654;23.360;2024-01-15T00:14:59;34.63;;;15.77;;
6388;SDS011;3227;42.654;23.360;2024-01-15T00:17:25;30.77;;;15.57;;
6388;SDS011;3227;42.654;23.360;2024-01-15T00:19:53;30.77;;;15.27;;
6388;SDS011;3227;42.654;23.360;2024-01-15T00:22:20;33.67;;;16.77;;
6388;SDS011;3227;42.654;23.360;2024-01-15T00:24:47;31.60;;;15.63;;
6388;SDS011;3227;42.654;23.360;2024-01-15T00:27:14;33.13;;;15.93;;
6388;SDS011;3227;42.654;23.360;2024-01-15T00:29:41;35.87;;;15.93;;
6388;SDS011;3227;42.654;23.360;2024-01-15T00:32:07;33.10;;;16.47;;
6388;SDS011;3227;42.654;23.360;2024-01-15T00:34:34;32.50;;;16.13;;
6388;SDS011;3227;42.654;23.360;2024-01-15T00:37:02;31.60;;;16.07;;
6388;SDS011;3227;42.654;23.360;2024-01-15T00:39:32;37.83;;;17.57;;
6388;SDS011;3227;42.654;23.360;2024-01-15T00:41:58;32.83;;;16.13;;
6388;SDS011;3227;42.654;23.360;2024-01-15T00:44:25;32.97;;;15.77;;
6388;SDS011;3227;42.654;23.360;2024-01-15T00:46:52;32.37;;;15.60;;
6388;SDS011;3227;42.654;23.360;2024-01-15T00:49:19;32.57;;;14.73;;
6388;SDS011;3227;42.654;23.360;2024-01-15T00:51:45;26.90;;;14.67;;
6388;SDS011;3227;42.654;23.360;2024-01-15T00:54:14;26.60;;;15.67;;
6388;SDS011;3227;42.654;23.360;2024-01-15T00:56:41;28.73;;;14.97;;
6388;SDS011;3227;42.654;23.360;2024-01-15T00:59:08;31.40;;;14.07;;
6388;SDS011;3227;42.654;23.360;2024-01-15T01:01:39;36.23;;;15.63;;
6388;SDS011;3227;42.654;23.360;2024-01-15T01:04:08;32.53;;;15.63;;
6388;SDS011;3227;42.654;23.360;2024-01-15T01:06:34;31.13;;;15.50;;
6388;SDS011;3227;42.654;23.360;2024-01-15T01:09:01;32.63;;;14.73;;
6388;SDS011;3227;42.654;23.360;2024-01-15T01:11:29;34.27;;;14.97;;
6388;SDS011;3227;42.654;23.360;2024-01-15T01:13:56;28.93;;;15.93;;
6388;SDS011;3227;42.654;23.360;2024-01-15T01:16:23;31.00;;;14.63;;
6388;SDS011;3227;42.654;23.360;2024-01-15T01:18:50;30.97;;;14.77;;
6388;SDS011;3227;42.654;23.360;2024-01-15T01:21:16;30.30;;;14.40;;
6388;SDS011;3227;42.654;23.360;2024-01-15T01:23:43;29.13;;;15.17;;
6388;SDS011;3227;42.654;23.360;2024-01-15T01:26:10;31.63;;;14.97;;
6388;SDS011;3227;42.654;23.360;2024-01-15T01:28:38;28.60;;;15.03;;
6388;SDS011;3227;42.654;23.360;2024-01-15T01:31:05;23.13;;;12.80;;
6388;SDS011;3227;42.654;23.360;2024-01-15T01:33:33;24.83;;;12.83;;
6388;SDS011;3227;42.654;23.360;2024-01-15T01:36:00;34.10;;;13.50;;
6388;SDS011;3227;42.654;23.360;2024-01-15T01:38:26;33.17;;;15.10;;
6388;SDS011;3227;42.654;23.360;2024-01-15T01:40:53;28.73;;;15.10;;
6388;SDS011;3227;42.654;23.360;2024-01-15T01:43:20;31.03;;;15.13;;
6388;SDS011;3227;42.654;23.360;2024-01-15T01:45:48;27.73;;;13.13;;
6388;SDS011;3227;42.654;23.360;2024-01-15T01:48:15;29.03;;;13.00;;
6388;SDS011;3227;42.654;23.360;2024-01-15T01:50:42;21.43;;;11.77;;
6388;SDS011;3227;42.654;23.360;2024-01-15T01:53:09;23.50;;;11.33;;
6388;SDS011;3227;42.654;23.360;2024-01-15T01:55:36;21.23;;;10.87;;
6388;SDS011;3227;42.654;23.360;2024-01-15T01:58:05;23.23;;;12.10;;
6388;SDS011;3227;42.654;23.360;2024-01-15T02:00:32;22.90;;;11.67;;
6388;SDS011;3227;42.654;23.360;2024-01-15T02:03:02;24.40;;;11.45;;
6388;SDS011;3227;42.654;23.360;2024-01-15T02:05:30;20.63;;;11.03;;
6388;SDS011;3227;42.654;23.360;2024-01-15T02:07:57;20.93;;;11.03;;
6388;SDS011;3227;42.654;23.360;2024-01-15T02:10:24;23.23;;;10.80;;
6388;SDS011;3227;42.654;23.360;2024-01-15T02:12:50;20.60;;;10.60;;
6388;SDS011;3227;42.654;23.360;2024-01-15T02:15:17;25.73;;;11.97;;
6388;SDS011;3227;42.654;23.360;2024-01-15T02:20:32;24.03;;;12.10;;
6388;SDS011;3227;42.654;23.360;2024-01-15T02:23:06;26.83;;;11.33;;
6388;SDS011;3227;42.654;23.360;2024-01-15T02:25:35;20.40;;;11.03;;
6388;SDS011;3227;42.654;23.360;2024-01-15T02:28:03;22.33;;;10.27;;
6388;SDS011;3227;42.654;23.360;2024-01-15T02:30:31;25.60;;;10.17;;
6388;SDS011;3227;42.654;23.360;2024-01-15T02:32:58;20.83;;;10.50;;
6388;SDS011;3227;42.654;23.360;2024-01-15T02:35:25;19.20;;;10.13;;
6388;SDS011;3227;42.654;23.360;2024-01-15T02:37:52;21.03;;;10.57;;
6388;SDS011;3227;42.654;23.360;2024-01-15T02:40:20;19.00;;;9.27;;
6388;SDS011;3227;42.654;23.360;2024-01-15T02:42:47;21.20;;;9.67;;
6388;SDS011;3227;42.654;23.360;2024-01-15T02:45:14;20.50;;;9.17;;
6388;SDS011;3227;42.654;23.360;2024-01-15T02:47:41;20.57;;;10.90;;
6388;SDS011;3227;42.654;23.360;2024-01-15T02:50:07;27.73;;;10.67;;
6388;SDS011;3227;42.654;23.360;2024-01-15T02:52:34;17.63;;;8.83;;
6388;SDS011;3227;42.654;23.360;2024-01-15T02:55:01;17.63;;;9.93;;
6388;SDS011;3227;42.654;23.360;2024-01-15T02:57:29;24.00;;;10.77;;
6388;SDS011;3227;42.654;23.360;2024-01-15T02:59:56;21.20;;;11.07;;
6388;SDS011;3227;42.654;23.360;2024-01-15T03:02:23;20.67;;;10.97;;
6388;SDS011;3227;42.654;23.360;2024-01-15T03:04:50;24.40;;;10.53;;
6388;SDS011;3227;42.654;23.360;2024-01-15T03:07:16;26.67;;;11.70;;
6388;SDS011;3227;42.654;23.360;2024-01-15T03:09:44;19.90;;;11.10;;
6388;SDS011;3227;42.654;23.360;2024-01-15T03:12:10;21.20;;;10.53;;
6388;SDS011;3227;42.654;23.360;2024-01-15T03:14:38;24.47;;;12.17;;
6388;SDS011;3227;42.654;23.360;2024-01-15T03:17:05;25.73;;;11.67;;
6388;SDS011;3227;42.654;23.360;2024-01-15T03:19:34;24.47;;;12.33;;
6388;SDS011;3227;42.654;23.360;2024-01-15T03:22:01;22.33;;;11.90;;
6388;SDS011;3227;42.654;23.360;2024-01-15T03:24:28;27.20;;;12.60;;
6388;SDS011;3227;42.654;23.360;2024-01-15T03:26:55;24.80;;;12.27;;
6388;SDS011;3227;42.654;23.360;2024-01-15T03:29:22;28.03;;;14.63;;
6388;SDS011;3227;42.654;23.360;2024-01-15T03:31:50;22.47;;;11.03;;
6388;SDS011;3227;42.654;23.360;2024-01-15T03:34:17;27.37;;;12.47;;
6388;SDS011;3227;42.654;23.360;2024-01-15T03:36:44;28.57;;;13.83;;
6388;SDS011;3227;42.654;23.360;2024-01-15T03:39:11;29.20;;;13.17;;
6388;SDS011;3227;42.654;23.360;2024-01-15T03:41:38;32.70;;;13.83;;
6388;SDS011;3227;42.654;23.360;2024-01-15T03:44:05;26.83;;;13.43;;
6388;SDS011;3227;42.654;23.360;2024-01-15T03:46:31;26.30;;;13.80;;
6388;SDS011;3227;42.654;23.360;2024-01-15T03:48:59;27.93;;;12.80;;
6388;SDS011;3227;42.654;23.360;2024-01-15T03:51:26;31.03;;;13.77;;
6388;SDS011;3227;42.654;23.360;2024-01-15T03:53:53;26.53;;;13.20;;
6388;SDS011;3227;42.654;23.360;2024-01-15T03:56:20;30.10;;;14.07;;
6388;SDS011;3227;42.654;23.360;2024-01-15T03:58:46;32.10;;;14.03;;
6388;SDS011;3227;42.654;23.360;2024-01-15T04:01:13;31.23;;;13.83;;
6388;SDS011;3227;42.654;23.360;2024-01-15T04:03:40;22.63;;;13.00;;
6388;SDS011;3227;42.654;23.360;2024-01-15T04:06:08;34.57;;;14.00;;
6388;SDS011;3227;42.654;23.360;2024-01-15T04:08:35;26.53;;;13.40;;
6388;SDS011;3227;42.654;23.360;2024-01-15T04:11:02;27.40;;;14.03;;
6388;SDS011;3227;42.654;23.360;2024-01-15T04:13:30;30.80;;;13.67;;
6388;SDS011;3227;42.654;23.360;2024-01-15T04:15:58;31.13;;;15.43;;
6388;SDS011;3227;42.654;23.360;2024-01-15T04:18:26;32.83;;;14.63;;
6388;SDS011;3227;42.654;23.360;2024-01-15T04:20:53;25.20;;;13.50;;
6388;SDS011;3227;42.654;23.360;2024-01-15T04:23:21;26.87;;;14.07;;
6388;SDS011;3227;42.654;23.360;2024-01-15T04:25:48;33.57;;;14.47;;
6388;SDS011;3227;42.654;23.360;2024-01-15T04:28:15;23.57;;;14.13;;
6388;SDS011;3227;42.654;23.360;2024-01-15T04:30:41;31.20;;;14.37;;
6388;SDS011;3227;42.654;23.360;2024-01-15T04:33:08;27.13;;;13.60;;
6388;SDS011;3227;42.654;23.360;2024-01-15T04:35:35;26.57;;;12.57;;
6388;SDS011;3227;42.654;23.360;2024-01-15T04:38:02;26.60;;;14.13;;
6388;SDS011;3227;42.654;23.360;2024-01-15T04:40:30;29.67;;;14.03;;
6388;SDS011;3227;42.654;23.360;2024-01-15T04:42:57;26.43;;;13.47;;
6388;SDS011;3227;42.654;23.360;2024-01-15T04:45:24;28.13;;;13.07;;
6388;SDS011;3227;42.654;23.360;2024-01-15T04:47:53;29.73;;;13.53;;
6388;SDS011;3227;42.654;23.360;2024-01-15T04:50:22;25.20;;;13.53;;
6388;SDS011;3227;42.654;23.360;2024-01-15T04:52:49;24.67;;;12.80;;
6388;SDS011;3227;42.654;23.360;2024-01-15T04:55:16;23.67;;;13.00;;
6388;SDS011;3227;42.654;23.360;2024-01-15T04:57:44;28.50;;;13.17;;
6388;SDS011;3227;42.654;23.360;2024-01-15T05:00:11;28.33;;;13.30;;
6388;SDS011;3227;42.654;23.360;2024-01-15T05:02:39;26.80;;;11.67;;
6388;SDS011;3227;42.654;23.360;2024-01-15T05:05:05;24.00;;;12.20;;
6388;SDS011;3227;42.654;23.360;2024-01-15T05:07:32;23.77;;;13.17;;
6388;SDS011;3227;42.654;23.360;2024-01-15T05:09:59;27.73;;;13.73;;
6388;SDS011;3227;42.654;23.360;2024-01-15T05:12:26;24.57;;;12.57;;
6388;SDS011;3227;42.654;23.360;2024-01-15T05:14:54;27.60;;;13.83;;
6388;SDS011;3227;42.654;23.360;2024-01-15T05:17:21;27.47;;;13.10;;
6388;SDS011;3227;42.654;23.360;2024-01-15T05:19:48;25.77;;;11.53;;
6388;SDS011;3227;42.654;23.360;2024-01-15T05:22:15;23.80;;;12.17;;
6388;SDS011;3227;42.654;23.360;2024-01-15T05:24:42;25.93;;;11.87;;
6388;SDS011;3227;42.654;23.360;2024-01-15T05:27:08;25.03;;;12.10;;
6388;SDS011;3227;42.654;23.360;2024-01-15T05:29:35;33.90;;;14.97;;
6388;SDS011;3227;42.654;23.360;2024-01-15T05:32:03;30.37;;;13.87;;
6388;SDS011;3227;42.654;23.360;2024-01-15T05:34:30;32.07;;;15.27;;
6388;SDS011;3227;42.654;23.360;2024-01-15T05:36:57;25.97;;;14.63;;
6388;SDS011;3227;42.654;23.360;2024-01-15T05:39:24;35.00;;;15.60;;
6388;SDS011;3227;42.654;23.360;2024-01-15T05:41:51;28.83;;;13.10;;
6388;SDS011;3227;42.654;23.360;2024-01-15T05:44:18;26.90;;;14.37;;
6388;SDS011;3227;42.654;23.360;2024-01-15T05:46:45;30.13;;;15.23;;
6388;SDS011;3227;42.654;23.360;2024-01-15T05:49:13;27.03;;;15.30;;
6388;SDS011;3227;42.654;23.360;2024-01-15T05:51:40;34.63;;;16.10;;
6388;SDS011;3227;42.654;23.360;2024-01-15T05:54:07;29.53;;;15.40;;
6388;SDS011;3227;42.654;23.360;2024-01-15T05:56:34;28.07;;;14.30;;
6388;SDS011;3227;42.654;23.360;2024-01-15T05:59:00;26.20;;;14.67;;
6388;SDS011;3227;42.654;23.360;2024-01-15T06:01:27;30.30;;;15.40;;
6388;SDS011;3227;42.654;23.360;2024-01-15T06:03:54;27.73;;;15.13;;
6388;SDS011;3227;42.654;23.360;2024-01-15T06:06:22;33.73;;;15.70;;
6388;SDS011;3227;42.654;23.360;2024-01-15T06:08:49;28.13;;;16.20;;
6388;SDS011;3227;42.654;23.360;2024-01-15T06:11:16;29.87;;;16.30;;
6388;SDS011;3227;42.654;23.360;2024-01-15T06:13:42;29.93;;;16.23;;
6388;SDS011;3227;42.654;23.360;2024-01-15T06:16:13;47.20;;;17.97;;
6388;SDS011;3227;42.654;23.360;2024-01-15T06:18:41;37.40;;;17.60;;
6388;SDS011;3227;42.654;23.360;2024-01-15T06:21:09;34.33;;;17.47;;
6388;SDS011;3227;42.654;23.360;2024-01-15T06:23:39;38.60;;;16.97;;
6388;SDS011;3227;42.654;23.360;2024-01-15T06:26:06;27.63;;;15.73;;
6388;SDS011;3227;42.654;23.360;2024-01-15T06:28:33;36.83;;;16.50;;
6388;SDS011;3227;42.654;23.360;2024-01-15T06:31:00;37.67;;;17.70;;
6388;SDS011;3227;42.654;23.360;2024-01-15T06:33:27;32.90;;;16.47;;
6388;SDS011;3227;42.654;23.360;2024-01-15T06:35:54;31.57;;;16.83;;
6388;SDS011;3227;42.654;23.360;2024-01-15T06:38:21;40.13;;;18.83;;
6388;SDS011;3227;42.654;23.360;2024-01-15T06:40:49;34.13;;;16.60;;
6388;SDS011;3227;42.654;23.360;2024-01-15T06:43:17;28.30;;;16.53;;
6388;SDS011;3227;42.654;23.360;2024-01-15T06:45:44;41.23;;;16.50;;
6388;SDS011;3227;42.654;23.360;2024-01-15T06:48:10;35.73;;;16.83;;
6388;SDS011;3227;42.654;23.360;2024-01-15T06:50:39;37.80;;;18.10;;
6388;SDS011;3227;42.654;23.360;2024-01-15T06:53:06;36.43;;;17.90;;
6388;SDS011;3227;42.654;23.360;2024-01-15T06:55:33;38.53;;;19.00;;
6388;SDS011;3227;42.654;23.360;2024-01-15T06:58:01;41.13;;;20.13;;
6388;SDS011;3227;42.654;23.360;2024-01-15T07:00:28;38.23;;;19.17;;
6388;SDS011;3227;42.654;23.360;2024-01-15T07:02:54;37.70;;;19.73;;
6388;SDS011;3227;42.654;23.360;2024-01-15T07:05:22;41.53;;;21.63;;
6388;SDS011;3227;42.654;23.360;2024-01-15T07:07:48;49.00;;;20.50;;
6388;SDS011;3227;42.654;23.360;2024-01-15T07:10:15;45.70;;;21.47;;
6388;SDS011;3227;42.654;23.360;2024-01-15T07:12:42;42.97;;;22.00;;
6388;SDS011;3227;42.654;23.360;2024-01-15T07:15:11;47.90;;;21.43;;
6388;SDS011;3227;42.654;23.360;2024-01-15T07:17:37;50.13;;;22.67;;
6388;SDS011;3227;42.654;23.360;2024-01-15T07:20:05;42.47;;;21.80;;
6388;SDS011;3227;42.654;23.360;2024-01-15T07:22:34;44.70;;;22.00;;
6388;SDS011;3227;42.654;23.360;2024-01-15T07:25:01;39.57;;;21.70;;
6388;SDS011;3227;42.654;23.360;2024-01-15T07:27:32;41.37;;;21.60;;
6388;SDS011;3227;42.654;23.360;2024-01-15T07:30:01;39.40;;;21.40;;
6388;SDS011;3227;42.654;23.360;2024-01-15T07:32:33;46.40;;;23.23;;
6388;SDS011;3227;42.654;23.360;2024-01-15T07:34:59;43.47;;;21.67;;
6388;SDS011;3227;42.654;23.360;2024-01-15T07:37:28;41.50;;;21.57;;
6388;SDS011;3227;42.654;23.360;2024-01-15T07:39:54;46.27;;;22.77;;
6388;SDS011;3227;42.654;23.360;2024-01-15T07:42:21;45.10;;;23.67;;
6388;SDS011;3227;42.654;23.360;2024-01-15T07:44:48;42.33;;;23.13;;
6388;SDS011;3227;42.654;23.360;2024-01-15T07:47:16;43.03;;;23.80;;
6388;SDS011;3227;42.654;23.360;2024-01-15T07:49:44;42.70;;;21.97;;
6388;SDS011;3227;42.654;23.360;2024-01-15T07:52:11;40.57;;;21.47;;
6388;SDS011;3227;42.654;23.360;2024-01-15T07:54:38;37.47;;;18.67;;
6388;SDS011;3227;42.654;23.360;2024-01-15T07:57:05;37.97;;;19.67;;
6388;SDS011;3227;42.654;23.360;2024-01-15T07:59:32;37.20;;;20.53;;
6388;SDS011;3227;42.654;23.360;2024-01-15T08:02:00;38.20;;;20.20;;
6388;SDS011;3227;42.654;23.360;2024-01-15T08:04:27;33.47;;;18.33;;
6388;SDS011;3227;42.654;23.360;2024-01-15T08:06:55;37.37;;;19.23;;
6388;SDS011;3227;42.654;23.360;2024-01-15T08:09:23;36.07;;;17.67;;
6388;SDS011;3227;42.654;23.360;2024-01-15T08:11:50;35.13;;;17.03;;
6388;SDS011;3227;42.654;23.360;2024-01-15T08:14:17;39.10;;;17.47;;
6388;SDS011;3227;42.654;23.360;2024-01-15T08:16:44;35.33;;;17.60;;
6388;SDS011;3227;42.654;23.360;2024-01-15T08:19:11;31.60;;;15.23;;
6388;SDS011;3227;42.654;23.360;2024-01-15T08:21:39;26.40;;;13.30;;
6388;SDS011;3227;42.654;23.360;2024-01-15T08:24:07;25.07;;;12.87;;
6388;SDS011;3227;42.654;23.360;2024-01-15T08:26:34;31.73;;;13.57;;
6388;SDS011;3227;42.654;23.360;2024-01-15T08:29:01;32.50;;;15.17;;
6388;SDS011;3227;42.654;23.360;2024-01-15T08:31:28;30.37;;;14.80;;
6388;SDS011;3227;42.654;23.360;2024-01-15T08:33:54;30.20;;;16.80;;
6388;SDS011;3227;42.654;23.360;2024-01-15T08:36:21;33.40;;;15.33;;
6388;SDS011;3227;42.654;23.360;2024-01-15T08:38:50;29.33;;;14.47;;
6388;SDS011;3227;42.654;23.360;2024-01-15T08:41:18;32.83;;;14.87;;
6388;SDS011;3227;42.654;23.360;2024-01-15T08:43:45;32.37;;;15.73;;
6388;SDS011;3227;42.654;23.360;2024-01-15T08:46:12;29.93;;;15.53;;
6388;SDS011;3227;42.654;23.360;2024-01-15T08:48:38;28.13;;;14.87;;
6388;SDS011;3227;42.654;23.360;2024-01-15T08:51:05;26.50;;;14.00;;
6388;SDS011;3227;42.654;23.360;2024-01-15T08:53:33;24.67;;;14.30;;
6388;SDS011;3227;42.654;23.360;2024-01-15T08:55:59;30.23;;;14.37;;
6388;SDS011;3227;42.654;23.360;2024-01-15T08:58:28;25.03;;;13.30;;
6388;SDS011;3227;42.654;23.360;2024-01-15T09:00:54;30.57;;;13.50;;
6388;SDS011;3227;42.654;23.360;2024-01-15T09:03:21;20.23;;;11.30;;
6388;SDS011;3227;42.654;23.360;2024-01-15T09:05:48;22.30;;;12.17;;
6388;SDS011;3227;42.654;23.360;2024-01-15T09:08:15;23.40;;;13.10;;
6388;SDS011;3227;42.654;23.360;2024-01-15T09:10:41;23.93;;;12.97;;
6388;SDS011;3227;42.654;23.360;2024-01-15T09:13:08;23.90;;;12.23;;
6388;SDS011;3227;42.654;23.360;2024-01-15T09:15:36;27.30;;;13.77;;
6388;SDS011;3227;42.654;23.360;2024-01-15T09:18:04;25.73;;;14.07;;
6388;SDS011;3227;42.654;23.360;2024-01-15T09:20:31;29.50;;;14.30;;
6388;SDS011;3227;42.654;23.360;2024-01-15T09:22:57;32.30;;;16.20;;
6388;SDS011;3227;42.654;23.360;2024-01-15T09:25:24;27.95;;;15.00;;
6388;SDS011;3227;42.654;23.360;2024-01-15T09:27:51;31.17;;;15.80;;
6388;SDS011;3227;42.654;23.360;2024-01-15T09:30:18;32.90;;;16.53;;
6388;SDS011;3227;42.654;23.360;2024-01-15T09:32:46;43.47;;;23.30;;
6388;SDS011;3227;42.654;23.360;2024-01-15T09:35:13;55.37;;;26.10;;
6388;SDS011;3227;42.654;23.360;2024-01-15T09:37:40;43.37;;;23.23;;
6388;SDS011;3227;42.654;23.360;2024-01-15T09:40:08;47.90;;;23.07;;
6388;SDS011;3227;42.654;23.360;2024-01-15T09:42:38;51.40;;;26.00;;
6388;SDS011;3227;42.654;23.360;2024-01-15T09:45:05;38.70;;;21.13;;
6388;SDS011;3227;42.654;23.360;2024-01-15T09:47:34;41.73;;;23.37;;
6388;SDS011;3227;42.654;23.360;2024-01-15T09:50:02;44.97;;;21.47;;
6388;SDS011;3227;42.654;23.360;2024-01-15T09:52:30;48.95;;;27.60;;
6388;SDS011;3227;42.654;23.360;2024-01-15T09:54:57;33.83;;;20.43;;
6388;SDS011;3227;42.654;23.360;2024-01-15T09:57:26;39.63;;;19.83;;
6388;SDS011;3227;42.654;23.360;2024-01-15T09:59:52;31.50;;;16.87;;
6388;SDS011;3227;42.654;23.360;2024-01-15T10:02:21;31.90;;;15.37;;
6388;SDS011;3227;42.654;23.360;2024-01-15T10:04:47;27.60;;;15.60;;
6388;SDS011;3227;42.654;23.360;2024-01-15T10:07:16;43.17;;;15.97;;
6388;SDS011;3227;42.654;23.360;2024-01-15T10:09:44;26.90;;;15.13;;
6388;SDS011;3227;42.654;23.360;2024-01-15T10:12:11;30.67;;;15.47;;
6388;SDS011;3227;42.654;23.360;2024-01-15T10:14:38;31.40;;;17.10;;
6388;SDS011;3227;42.654;23.360;2024-01-15T10:17:11;30.13;;;16.93;;
6388;SDS011;3227;42.654;23.360;2024-01-15T10:19:39;37.17;;;18.13;;
6388;SDS011;3227;42.654;23.360;2024-01-15T10:22:07;36.03;;;17.30;;
6388;SDS011;3227;42.654;23.360;2024-01-15T10:24:37;32.97;;;15.33;;
6388;SDS011;3227;42.654;23.360;2024-01-15T10:27:07;32.70;;;14.73;;
6388;SDS011;3227;42.654;23.360;2024-01-15T10:29:34;28.13;;;14.70;;
6388;SDS011;3227;42.654;23.360;2024-01-15T10:32:02;26.40;;;13.53;;
6388;SDS011;3227;42.654;23.360;2024-01-15T10:34:30;27.60;;;13.73;;
6388;SDS011;3227;42.654;23.360;2024-01-15T10:36:57;23.37;;;12.93;;
6388;SDS011;3227;42.654;23.360;2024-01-15T10:39:23;27.37;;;13.57;;
6388;SDS011;3227;42.654;23.360;2024-01-15T10:41:51;27.77;;;13.37;;
6388;SDS011;3227;42.654;23.360;2024-01-15T10:44:18;26.20;;;14.70;;
6388;SDS011;3227;42.654;23.360;2024-01-15T10:46:45;28.37;;;14.83;;
6388;SDS011;3227;42.654;23.360;2024-01-15T10:49:12;30.30;;;14.30;;
6388;SDS011;3227;42.654;23.360;2024-01-15T10:51:39;35.40;;;18.30;;
6388;SDS011;3227;42.654;23.360;2024-01-15T10:54:07;27.20;;;14.30;;
6388;SDS011;3227;42.654;23.360;2024-01-15T10:56:37;31.88;;;15.95;;
6388;SDS011;3227;42.654;23.360;2024-01-15T10:59:06;28.30;;;13.87;;
6388;SDS011;3227;42.654;23.360;2024-01-15T11:01:35;28.23;;;14.15;;
6388;SDS011;3227;42.654;23.360;2024-01-15T11:04:03;35.47;;;15.83;;
6388;SDS011;3227;42.654;23.360;2024-01-15T11:06:41;30.13;;;15.33;;
6388;SDS011;3227;42.654;23.360;2024-01-15T11:09:09;26.77;;;14.73;;
6388;SDS011;3227;42.654;23.360;2024-01-15T11:11:39;27.20;;;13.50;;
6388;SDS011;3227;42.654;23.360;2024-01-15T11:14:08;29.20;;;16.50;;
6388;SDS011;3227;42.654;23.360;2024-01-15T11:16:53;31.20;;;16.63;;
6388;SDS011;3227;42.654;23.360;2024-01-15T11:19:21;29.83;;;15.13;;
6388;SDS011;3227;42.654;23.360;2024-01-15T11:21:48;39.38;;;20.92;;
6388;SDS011;3227;42.654;23.360;2024-01-15T11:24:34;35.63;;;17.77;;
6388;SDS011;3227;42.654;23.360;2024-01-15T11:27:02;39.27;;;17.40;;
6388;SDS011;3227;42.654;23.360;2024-01-15T11:29:31;30.70;;;17.23;;
6388;SDS011;3227;42.654;23.360;2024-01-15T11:32:00;30.33;;;15.63;;
6388;SDS011;3227;42.654;23.360;2024-01-15T11:37:16;32.87;;;16.73;;
6388;SDS011;3227;42.654;23.360;2024-01-15T11:39:44;28.30;;;15.27;;
6388;SDS011;3227;42.654;23.360;2024-01-15T11:42:12;30.77;;;15.40;;
6388;SDS011;3227;42.654;23.360;2024-01-15T11:44:40;30.60;;;14.88;;
6388;SDS011;3227;42.654;23.360;2024-01-15T11:47:08;35.90;;;19.00;;
6388;SDS011;3227;42.654;23.360;2024-01-15T11:52:34;31.77;;;14.17;;
6388;SDS011;3227;42.654;23.360;2024-01-15T11:55:02;29.27;;;17.80;;
6388;SDS011;3227;42.654;23.360;2024-01-15T11:57:40;27.60;;;14.77;;
6388;SDS011;3227;42.654;23.360;2024-01-15T12:00:11;32.00;;;14.10;;
6388;SDS011;3227;42.654;23.360;2024-01-15T12:02:39;23.27;;;13.97;;
6388;SDS011;3227;42.654;23.360;2024-01-15T12:05:06;34.80;;;16.13;;
6388;SDS011;3227;42.654;23.360;2024-01-15T12:07:34;30.70;;;15.27;;
6388;SDS011;3227;42.654;23.360;2024-01-15T12:10:00;25.57;;;14.00;;
6388;SDS011;3227;42.654;23.360;2024-01-15T12:12:30;30.70;;;15.17;;
6388;SDS011;3227;42.654;23.360;2024-01-15T12:15:15;26.27;;;13.47;;
6388;SDS011;3227;42.654;23.360;2024-01-15T12:17:42;26.73;;;13.73;;
6388;SDS011;3227;42.654;23.360;2024-01-15T12:20:09;30.10;;;15.10;;
6388;SDS011;3227;42.654;23.360;2024-01-15T12:22:37;26.23;;;14.40;;
6388;SDS011;3227;42.654;23.360;2024-01-15T12:25:04;29.47;;;14.60;;
6388;SDS011;3227;42.654;23.360;2024-01-15T12:27:32;26.83;;;13.90;;
6388;SDS011;3227;42.654;23.360;2024-01-15T12:29:59;28.53;;;12.67;;
6388;SDS011;3227;42.654;23.360;2024-01-15T12:32:28;28.83;;;14.40;;
6388;SDS011;3227;42.654;23.360;2024-01-15T12:34:55;25.33;;;12.67;;
6388;SDS011;3227;42.654;23.360;2024-01-15T12:37:22;28.10;;;13.43;;
6388;SDS011;3227;42.654;23.360;2024-01-15T12:39:51;25.90;;;15.40;;
6388;SDS011;3227;42.654;23.360;2024-01-15T12:42:20;24.57;;;13.13;;
6388;SDS011;3227;42.654;23.360;2024-01-15T12:44:48;30.23;;;15.20;;
6388;SDS011;3227;42.654;23.360;2024-01-15T12:47:15;27.93;;;13.83;;
6388;SDS011;3227;42.654;23.360;2024-01-15T12:49:47;30.60;;;13.87;;
6388;SDS011;3227;42.654;23.360;2024-01-15T12:52:19;25.90;;;12.93;;
6388;SDS011;3227;42.654;23.360;2024-01-15T12:54:46;25.23;;;13.70;;
6388;SDS011;3227;42.654;23.360;2024-01-15T12:57:13;29.63;;;13.10;;
6388;SDS011;3227;42.654;23.360;2024-01-15T12:59:40;22.80;;;12.27;;
6388;SDS011;3227;42.654;23.360;2024-01-15T13:02:07;26.67;;;12.80;;
6388;SDS011;3227;42.654;23.360;2024-01-15T13:04:33;25.10;;;13.43;;
6388;SDS011;3227;42.654;23.360;2024-01-15T13:07:02;25.73;;;12.17;;
6388;SDS011;3227;42.654;23.360;2024-01-15T13:09:29;27.10;;;12.90;;
6388;SDS011;3227;42.654;23.360;2024-01-15T13:11:55;30.23;;;16.98;;
6388;SDS011;3227;42.654;23.360;2024-01-15T13:14:22;29.27;;;14.63;;
6388;SDS011;3227;42.654;23.360;2024-01-15T13:16:49;26.37;;;14.20;;
6388;SDS011;3227;42.654;23.360;2024-01-15T13:19:16;27.80;;;15.30;;
6388;SDS011;3227;42.654;23.360;2024-01-15T13:21:45;31.80;;;17.67;;
6388;SDS011;3227;42.654;23.360;2024-01-15T13:24:13;29.07;;;15.50;;
6388;SDS011;3227;42.654;23.360;2024-01-15T13:26:40;35.30;;;15.87;;
6388;SDS011;3227;42.654;23.360;2024-01-15T13:29:08;30.47;;;14.10;;
6388;SDS011;3227;42.654;23.360;2024-01-15T13:31:35;34.67;;;15.30;;
6388;SDS011;3227;42.654;23.360;2024-01-15T13:34:03;31.70;;;17.05;;
6388;SDS011;3227;42.654;23.360;2024-01-15T13:36:30;30.90;;;14.93;;
6388;SDS011;3227;42.654;23.360;2024-01-15T13:38:56;35.45;;;19.17;;
6388;SDS011;3227;42.654;23.360;2024-01-15T13:41:25;28.07;;;15.10;;
6388;SDS011;3227;42.654;23.360;2024-01-15T13:43:52;33.67;;;15.03;;
6388;SDS011;3227;42.654;23.360;2024-01-15T13:46:20;32.83;;;17.27;;
6388;SDS011;3227;42.654;23.360;2024-01-15T13:48:49;33.17;;;18.25;;
6388;SDS011;3227;42.654;23.360;2024-01-15T13:51:16;38.65;;;19.88;;
6388;SDS011;3227;42.654;23.360;2024-01-15T13:53:43;32.10;;;18.77;;
6388;SDS011;3227;42.654;23.360;2024-01-15T13:56:10;29.27;;;14.67;;
6388;SDS011;3227;42.654;23.360;2024-01-15T13:58:39;26.17;;;13.73;;
6388;SDS011;3227;42.654;23.360;2024-01-15T14:01:05;33.13;;;17.50;;
6388;SDS011;3227;42.654;23.360;2024-01-15T14:03:33;25.30;;;15.00;;
6388;SDS011;3227;42.654;23.360;2024-01-15T14:06:00;26.73;;;15.87;;
6388;SDS011;3227;42.654;23.360;2024-01-15T14:08:28;30.33;;;14.83;;
6388;SDS011;3227;42.654;23.360;2024-01-15T14:10:55;28.40;;;15.00;;
6388;SDS011;3227;42.654;23.360;2024-01-15T14:13:22;30.23;;;14.67;;
6388;SDS011;3227;42.654;23.360;2024-01-15T14:15:50;28.03;;;13.77;;
6388;SDS011;3227;42.654;23.360;2024-01-15T14:18:17;31.20;;;15.23;;
6388;SDS011;3227;42.654;23.360;2024-01-15T14:20:44;25.33;;;14.53;;
6388;SDS011;3227;42.654;23.360;2024-01-15T14:23:11;25.23;;;15.10;;
6388;SDS011;3227;42.654;23.360;2024-01-15T14:25:39;24.60;;;14.37;;
6388;SDS011;3227;42.654;23.360;2024-01-15T14:28:05;29.73;;;15.83;;
6388;SDS011;3227;42.654;23.360;2024-01-15T14:30:32;30.20;;;14.33;;
6388;SDS011;3227;42.654;23.360;2024-01-15T14:33:01;24.87;;;13.80;;
6388;SDS011;3227;42.654;23.360;2024-01-15T14:35:27;27.00;;;14.60;;
6388;SDS011;3227;42.654;23.360;2024-01-15T14:37:54;28.33;;;14.33;;
6388;SDS011;3227;42.654;23.360;2024-01-15T14:40:23;27.90;;;15.10;;
6388;SDS011;3227;42.654;23.360;2024-01-15T14:42:51;29.53;;;15.17;;
6388;SDS011;3227;42.654;23.360;2024-01-15T14:45:19;34.23;;;14.90;;